createdAt,value
2018-08-04T00:01:00.847Z,1014.13
2018-08-04T00:02:09.502Z,1014.13
2018-08-04T00:03:18.414Z,1014.13
2018-08-04T00:04:27.071Z,1014.14
2018-08-04T00:05:35.986Z,1014.16
2018-08-04T00:06:45.165Z,1014.13
2018-08-04T00:07:53.809Z,1014.13
2018-08-04T00:09:02.728Z,1014.13
2018-08-04T00:10:11.381Z,1014.17
2018-08-04T00:11:20.043Z,1014.17
2018-08-04T00:12:28.685Z,1014.18
2018-08-04T00:13:37.331Z,1014.2
2018-08-04T00:14:45.978Z,1014.2
2018-08-04T00:15:54.895Z,1014.25
2018-08-04T00:17:04.076Z,1014.26
2018-08-04T00:18:12.728Z,1014.28
2018-08-04T00:19:21.375Z,1014.3
2018-08-04T00:20:30.034Z,1014.31
2018-08-04T00:21:38.692Z,1014.31
2018-08-04T00:22:47.337Z,1014.29
2018-08-04T00:23:56.258Z,1014.29
2018-08-04T00:25:04.902Z,1014.25
2018-08-04T00:26:13.563Z,1014.25
2018-08-04T00:27:22.205Z,1014.18
2018-08-04T00:28:30.857Z,1014.19
2018-08-04T00:29:39.506Z,1014.2
2018-08-04T00:30:48.419Z,1014.17
2018-08-04T00:31:57.069Z,1014.17
2018-08-04T00:33:05.986Z,1014.14
2018-08-04T00:34:14.637Z,1014.14
2018-08-04T00:35:23.285Z,1014.17
2018-08-04T00:36:31.936Z,1014.19
2018-08-04T00:37:40.579Z,1014.12
2018-08-04T00:38:49.239Z,1014.13
2018-08-04T00:39:57.878Z,1014.16
2018-08-04T00:41:06.803Z,1014.16
2018-08-04T00:42:15.445Z,1014.15
2018-08-04T00:43:24.109Z,1014.15
2018-08-04T00:44:32.752Z,1014.17
2018-08-04T00:45:41.676Z,1014.18
2018-08-04T00:46:50.326Z,1014.17
2018-08-04T00:47:58.985Z,1014.16
2018-08-04T00:49:07.633Z,1014.12
2018-08-04T00:50:16.279Z,1014.12
2018-08-04T00:51:25.186Z,1014.1
2018-08-04T00:52:34.368Z,1014.09
2018-08-04T00:53:43.033Z,1014.07
2018-08-04T00:54:51.941Z,1014.07
2018-08-04T00:56:00.597Z,1014.06
2018-08-04T00:57:09.238Z,1014.08
2018-08-04T00:58:17.891Z,1014.06
2018-08-04T00:59:26.538Z,1014.09
2018-08-04T01:00:35.193Z,1014.08
2018-08-04T01:01:43.835Z,1014.1
2018-08-04T01:02:52.494Z,1014.12
2018-08-04T01:04:01.141Z,1014.17
2018-08-04T01:05:09.791Z,1014.15
2018-08-04T01:06:18.434Z,1014.15
2018-08-04T01:07:27.343Z,1014.18
2018-08-04T01:08:36.261Z,1014.21
2018-08-04T01:09:44.917Z,1014.2
2018-08-04T01:10:53.569Z,1014.24
2018-08-04T01:12:02.209Z,1014.19
2018-08-04T01:13:10.862Z,1014.2
2018-08-04T01:14:19.775Z,1014.18
2018-08-04T01:15:28.434Z,1014.2
2018-08-04T01:16:37.070Z,1014.24
2018-08-04T01:17:45.994Z,1014.23
2018-08-04T01:18:54.635Z,1014.25
2018-08-04T01:20:03.293Z,1014.25
2018-08-04T01:21:11.933Z,1014.24
2018-08-04T01:22:20.850Z,1014.26
2018-08-04T01:23:29.498Z,1014.24
2018-08-04T01:24:38.164Z,1014.23
2018-08-04T01:25:47.074Z,1014.25
2018-08-04T01:26:55.718Z,1014.27
2018-08-04T01:28:04.369Z,1014.25
2018-08-04T01:29:13.017Z,1014.19
2018-08-04T01:30:21.674Z,1014.17
2018-08-04T01:31:30.318Z,1014.16
2018-08-04T01:32:38.972Z,1014.14
2018-08-04T01:33:47.635Z,1014.13
2018-08-04T01:34:56.264Z,1014.12
2018-08-04T01:36:05.189Z,1014.11
2018-08-04T01:37:13.831Z,1014.13
2018-08-04T01:38:22.755Z,1014.13
2018-08-04T01:39:31.653Z,1014.1
2018-08-04T01:40:40.305Z,1014.12
2018-08-04T01:41:48.953Z,1014.1
2018-08-04T01:42:57.611Z,1014.11
2018-08-04T01:44:06.259Z,1014.04
2018-08-04T01:45:14.906Z,1014.03
2018-08-04T01:46:23.559Z,1014.03
2018-08-04T01:47:32.199Z,1014.05
2018-08-04T01:48:40.859Z,1014.08
2018-08-04T01:49:49.763Z,1014
2018-08-04T01:50:58.418Z,1014.04
2018-08-04T01:52:07.062Z,1014.02
2018-08-04T01:53:15.718Z,1013.97
2018-08-04T01:54:24.362Z,1013.96
2018-08-04T01:55:33.015Z,1013.95
2018-08-04T01:56:41.654Z,1013.96
2018-08-04T01:57:50.311Z,1013.92
2018-08-04T01:58:59.519Z,1013.95
2018-08-04T02:00:08.137Z,1013.9
2018-08-04T02:01:16.775Z,1013.91
2018-08-04T02:02:25.424Z,1013.85
2018-08-04T02:03:34.076Z,1013.82
2018-08-04T02:04:42.728Z,1013.79
2018-08-04T02:05:51.378Z,1013.81
2018-08-04T02:07:00.017Z,1013.83
2018-08-04T02:08:08.674Z,1013.85
2018-08-04T02:09:17.324Z,1013.86
2018-08-04T02:10:25.983Z,1013.87
2018-08-04T02:11:34.621Z,1013.9
2018-08-04T02:12:43.274Z,1013.91
2018-08-04T02:13:51.920Z,1013.91
2018-08-04T02:15:00.577Z,1013.86
2018-08-04T02:16:09.215Z,1013.83
2018-08-04T02:17:17.865Z,1013.79
2018-08-04T02:18:26.513Z,1013.78
2018-08-04T02:19:35.171Z,1013.76
2018-08-04T02:20:44.083Z,1013.79
2018-08-04T02:21:52.996Z,1013.79
2018-08-04T02:23:01.644Z,1013.82
2018-08-04T02:24:10.551Z,1013.81
2018-08-04T02:25:19.210Z,1013.81
2018-08-04T02:26:28.120Z,1013.84
2018-08-04T02:27:36.779Z,1013.82
2018-08-04T02:28:45.420Z,1013.83
2018-08-04T02:29:54.077Z,1013.79
2018-08-04T02:31:02.720Z,1013.79
2018-08-04T02:32:11.641Z,1013.79
2018-08-04T02:33:20.547Z,1013.78
2018-08-04T02:34:29.475Z,1013.81
2018-08-04T02:35:38.401Z,1013.78
2018-08-04T02:36:47.051Z,1013.77
2018-08-04T02:37:55.708Z,1013.77
2018-08-04T02:39:04.674Z,1013.73
2018-08-04T02:40:13.335Z,1013.67
2018-08-04T02:41:22.250Z,1013.67
2018-08-04T02:42:31.165Z,1013.66
2018-08-04T02:43:39.814Z,1013.74
2018-08-04T02:44:48.731Z,1013.71
2018-08-04T02:45:57.646Z,1013.72
2018-08-04T02:47:06.306Z,1013.75
2018-08-04T02:48:15.485Z,1013.72
2018-08-04T02:49:24.397Z,1013.75
2018-08-04T02:50:33.052Z,1013.67
2018-08-04T02:51:41.705Z,1013.69
2018-08-04T02:52:50.350Z,1013.68
2018-08-04T02:53:59.265Z,1013.67
2018-08-04T02:55:07.914Z,1013.7
2018-08-04T02:56:16.568Z,1013.72
2018-08-04T02:57:25.487Z,1013.72
2018-08-04T02:58:34.136Z,1013.69
2018-08-04T02:59:42.808Z,1013.71
2018-08-04T03:00:52.217Z,1013.72
2018-08-04T03:02:00.871Z,1013.7
2018-08-04T03:03:09.526Z,1013.69
2018-08-04T03:04:18.712Z,1013.67
2018-08-04T03:05:27.627Z,1013.67
2018-08-04T03:06:36.281Z,1013.69
2018-08-04T03:07:44.933Z,1013.68
2018-08-04T03:08:53.843Z,1013.65
2018-08-04T03:10:02.498Z,1013.63
2018-08-04T03:11:11.151Z,1013.59
2018-08-04T03:12:19.795Z,1013.57
2018-08-04T03:13:28.719Z,1013.51
2018-08-04T03:14:37.365Z,1013.56
2018-08-04T03:15:46.039Z,1013.57
2018-08-04T03:16:54.685Z,1013.59
2018-08-04T03:18:03.636Z,1013.57
2018-08-04T03:19:12.559Z,1013.56
2018-08-04T03:20:21.198Z,1013.53
2018-08-04T03:21:30.118Z,1013.48
2018-08-04T03:22:38.760Z,1013.49
2018-08-04T03:23:47.418Z,1013.5
2018-08-04T03:24:56.061Z,1013.49
2018-08-04T03:26:04.976Z,1013.54
2018-08-04T03:27:13.635Z,1013.54
2018-08-04T03:28:22.292Z,1013.58
2018-08-04T03:29:30.944Z,1013.53
2018-08-04T03:30:39.864Z,1013.54
2018-08-04T03:31:48.523Z,1013.51
2018-08-04T03:32:57.176Z,1013.51
2018-08-04T03:34:05.824Z,1013.51
2018-08-04T03:35:14.998Z,1013.48
2018-08-04T03:36:23.929Z,1013.52
2018-08-04T03:37:32.575Z,1013.47
2018-08-04T03:38:41.229Z,1013.52
2018-08-04T03:39:49.875Z,1013.5
2018-08-04T03:40:58.523Z,1013.52
2018-08-04T03:42:07.166Z,1013.5
2018-08-04T03:43:15.819Z,1013.45
2018-08-04T03:44:24.465Z,1013.47
2018-08-04T03:45:33.117Z,1013.43
2018-08-04T03:46:41.760Z,1013.41
2018-08-04T03:47:50.416Z,1013.43
2018-08-04T03:48:59.061Z,1013.42
2018-08-04T03:50:07.984Z,1013.42
2018-08-04T03:51:16.627Z,1013.44
2018-08-04T03:52:25.282Z,1013.44
2018-08-04T03:53:33.928Z,1013.46
2018-08-04T03:54:42.578Z,1013.51
2018-08-04T03:55:51.230Z,1013.52
2018-08-04T03:56:59.870Z,1013.57
2018-08-04T03:58:08.519Z,1013.6
2018-08-04T03:59:17.169Z,1013.59
2018-08-04T04:00:26.081Z,1013.56
2018-08-04T04:01:35.009Z,1013.54
2018-08-04T04:02:43.658Z,1013.52
2018-08-04T04:03:52.306Z,1013.47
2018-08-04T04:05:00.960Z,1013.44
2018-08-04T04:06:09.613Z,1013.44
2018-08-04T04:07:18.555Z,1013.47
2018-08-04T04:08:27.432Z,1013.45
2018-08-04T04:09:36.086Z,1013.45
2018-08-04T04:10:45.004Z,1013.48
2018-08-04T04:11:53.652Z,1013.46
2018-08-04T04:13:02.567Z,1013.48
2018-08-04T04:14:11.213Z,1013.53
2018-08-04T04:15:19.863Z,1013.55
2018-08-04T04:16:28.513Z,1013.56
2018-08-04T04:17:37.161Z,1013.61
2018-08-04T04:18:45.804Z,1013.71
2018-08-04T04:19:54.725Z,1013.75
2018-08-04T04:21:03.371Z,1013.76
2018-08-04T04:22:12.285Z,1013.81
2018-08-04T04:23:20.930Z,1013.82
2018-08-04T04:24:29.582Z,1013.87
2018-08-04T04:25:38.225Z,1013.87
2018-08-04T04:26:46.876Z,1013.89
2018-08-04T04:27:56.053Z,1013.84
2018-08-04T04:29:04.701Z,1013.84
2018-08-04T04:30:13.356Z,1013.85
2018-08-04T04:31:22.272Z,1013.83
2018-08-04T04:32:30.921Z,1013.83
2018-08-04T04:33:39.567Z,1013.81
2018-08-04T04:34:48.220Z,1013.82
2018-08-04T04:35:57.124Z,1013.79
2018-08-04T04:37:05.784Z,1013.86
2018-08-04T04:38:14.431Z,1013.9
2018-08-04T04:39:23.350Z,1013.96
2018-08-04T04:40:31.991Z,1013.97
2018-08-04T04:41:40.644Z,1013.96
2018-08-04T04:42:49.547Z,1013.95
2018-08-04T04:43:58.196Z,1013.95
2018-08-04T04:45:06.843Z,1013.95
2018-08-04T04:46:15.502Z,1013.93
2018-08-04T04:47:24.156Z,1013.95
2018-08-04T04:48:32.902Z,1013.91
2018-08-04T04:49:41.442Z,1013.91
2018-08-04T04:50:50.088Z,1013.85
2018-08-04T04:51:58.742Z,1013.83
2018-08-04T04:53:07.395Z,1013.79
2018-08-04T04:54:16.041Z,1013.76
2018-08-04T04:55:24.685Z,1013.74
2018-08-04T04:56:33.341Z,1013.74
2018-08-04T04:57:41.990Z,1013.73
2018-08-04T04:58:50.640Z,1013.73
2018-08-04T04:59:59.278Z,1013.74
2018-08-04T05:01:07.938Z,1013.74
2018-08-04T05:02:16.582Z,1013.69
2018-08-04T05:03:25.232Z,1013.68
2018-08-04T05:04:33.872Z,1013.67
2018-08-04T05:05:42.522Z,1013.72
2018-08-04T05:06:51.175Z,1013.76
2018-08-04T05:07:59.826Z,1013.8
2018-08-04T05:09:08.478Z,1013.82
2018-08-04T05:10:17.378Z,1013.8
2018-08-04T05:11:26.029Z,1013.81
2018-08-04T05:12:34.674Z,1013.81
2018-08-04T05:13:43.331Z,1013.82
2018-08-04T05:14:51.972Z,1013.77
2018-08-04T05:16:00.624Z,1013.75
2018-08-04T05:17:09.285Z,1013.81
2018-08-04T05:18:17.923Z,1013.86
2018-08-04T05:19:26.561Z,1013.94
2018-08-04T05:20:35.214Z,1013.97
2018-08-04T05:21:43.860Z,1014.01
2018-08-04T05:22:52.518Z,1013.96
2018-08-04T05:24:01.163Z,1013.96
2018-08-04T05:25:10.070Z,1013.98
2018-08-04T05:26:18.716Z,1014.06
2018-08-04T05:27:27.364Z,1014.05
2018-08-04T05:28:36.023Z,1014.05
2018-08-04T05:29:44.672Z,1014.07
2018-08-04T05:30:53.319Z,1014.01
2018-08-04T05:32:01.980Z,1013.99
2018-08-04T05:33:10.616Z,1014.01
2018-08-04T05:34:19.269Z,1014.02
2018-08-04T05:35:27.917Z,1014.04
2018-08-04T05:36:36.840Z,1014.03
2018-08-04T05:37:45.742Z,1014.02
2018-08-04T05:38:54.395Z,1014
2018-08-04T05:40:03.047Z,1014.01
2018-08-04T05:41:11.702Z,1014
2018-08-04T05:42:20.349Z,1014.01
2018-08-04T05:43:29.075Z,1013.98
2018-08-04T05:44:37.642Z,1013.94
2018-08-04T05:45:46.291Z,1013.94
2018-08-04T05:46:54.947Z,1013.97
2018-08-04T05:48:03.590Z,1014.01
2018-08-04T05:49:12.245Z,1014.05
2018-08-04T05:50:20.883Z,1014.08
2018-08-04T05:51:29.542Z,1014.09
2018-08-04T05:52:38.185Z,1014.08
2018-08-04T05:53:47.099Z,1014.12
2018-08-04T05:54:55.740Z,1014.16
2018-08-04T05:56:04.673Z,1014.17
2018-08-04T05:57:13.326Z,1014.14
2018-08-04T05:58:21.976Z,1014.18
2018-08-04T05:59:30.617Z,1014.18
2018-08-04T06:00:39.307Z,1014.23
2018-08-04T06:01:48.196Z,1014.19
2018-08-04T06:02:57.132Z,1014.2
2018-08-04T06:04:06.030Z,1014.22
2018-08-04T06:05:14.669Z,1014.2
2018-08-04T06:06:23.320Z,1014.21
2018-08-04T06:07:32.230Z,1014.21
2018-08-04T06:08:40.888Z,1014.22
2018-08-04T06:09:49.531Z,1014.22
2018-08-04T06:10:58.183Z,1014.23
2018-08-04T06:12:06.829Z,1014.21
2018-08-04T06:13:15.487Z,1014.23
2018-08-04T06:14:24.124Z,1014.2
2018-08-04T06:15:32.773Z,1014.23
2018-08-04T06:16:41.419Z,1014.22
2018-08-04T06:17:50.076Z,1014.2
2018-08-04T06:18:58.987Z,1014.24
2018-08-04T06:20:07.631Z,1014.26
2018-08-04T06:21:16.278Z,1014.26
2018-08-04T06:22:24.925Z,1014.27
2018-08-04T06:23:33.582Z,1014.25
2018-08-04T06:24:42.489Z,1014.3
2018-08-04T06:25:51.405Z,1014.31
2018-08-04T06:27:00.046Z,1014.34
2018-08-04T06:28:08.771Z,1014.38
2018-08-04T06:29:17.354Z,1014.41
2018-08-04T06:30:26.059Z,1014.35
2018-08-04T06:31:34.693Z,1014.35
2018-08-04T06:32:43.309Z,1014.34
2018-08-04T06:33:51.954Z,1014.31
2018-08-04T06:35:01.126Z,1014.33
2018-08-04T06:36:09.770Z,1014.34
2018-08-04T06:37:18.422Z,1014.36
2018-08-04T06:38:27.075Z,1014.36
2018-08-04T06:39:35.729Z,1014.32
2018-08-04T06:40:44.382Z,1014.35
2018-08-04T06:41:53.028Z,1014.32
2018-08-04T06:43:01.940Z,1014.36
2018-08-04T06:44:10.591Z,1014.38
2018-08-04T06:45:19.250Z,1014.39
2018-08-04T06:46:27.893Z,1014.41
2018-08-04T06:47:36.543Z,1014.41
2018-08-04T06:48:45.194Z,1014.42
2018-08-04T06:49:53.854Z,1014.41
2018-08-04T06:51:02.499Z,1014.37
2018-08-04T06:52:11.153Z,1014.39
2018-08-04T06:53:19.799Z,1014.37
2018-08-04T06:54:28.457Z,1014.39
2018-08-04T06:55:37.105Z,1014.38
2018-08-04T06:56:46.040Z,1014.4
2018-08-04T06:57:54.684Z,1014.38
2018-08-04T06:59:03.332Z,1014.42
2018-08-04T07:00:11.988Z,1014.41
2018-08-04T07:01:20.640Z,1014.43
2018-08-04T07:02:29.287Z,1014.42
2018-08-04T07:03:37.933Z,1014.41
2018-08-04T07:04:46.588Z,1014.42
2018-08-04T07:05:55.238Z,1014.4
2018-08-04T07:07:03.892Z,1014.44
2018-08-04T07:08:12.538Z,1014.46
2018-08-04T07:09:21.197Z,1014.45
2018-08-04T07:10:29.842Z,1014.43
2018-08-04T07:11:38.494Z,1014.48
2018-08-04T07:12:47.139Z,1014.48
2018-08-04T07:13:55.793Z,1014.46
2018-08-04T07:15:04.445Z,1014.47
2018-08-04T07:16:13.098Z,1014.43
2018-08-04T07:17:21.745Z,1014.46
2018-08-04T07:18:30.389Z,1014.46
2018-08-04T07:19:39.039Z,1014.46
2018-08-04T07:20:47.692Z,1014.46
2018-08-04T07:21:56.348Z,1014.48
2018-08-04T07:23:04.996Z,1014.5
2018-08-04T07:24:13.647Z,1014.48
2018-08-04T07:25:22.303Z,1014.49
2018-08-04T07:26:30.955Z,1014.51
2018-08-04T07:27:39.610Z,1014.51
2018-08-04T07:28:48.322Z,1014.57
2018-08-04T07:29:56.913Z,1014.53
2018-08-04T07:31:05.555Z,1014.55
2018-08-04T07:32:14.213Z,1014.59
2018-08-04T07:33:22.867Z,1014.59
2018-08-04T07:34:31.520Z,1014.61
2018-08-04T07:35:40.173Z,1014.58
2018-08-04T07:36:48.815Z,1014.63
2018-08-04T07:37:57.472Z,1014.6
2018-08-04T07:39:06.115Z,1014.63
2018-08-04T07:40:14.774Z,1014.65
2018-08-04T07:41:23.413Z,1014.65
2018-08-04T07:42:32.067Z,1014.64
2018-08-04T07:43:40.980Z,1014.65
2018-08-04T07:44:49.638Z,1014.65
2018-08-04T07:45:58.279Z,1014.64
2018-08-04T07:47:06.933Z,1014.65
2018-08-04T07:48:15.580Z,1014.65
2018-08-04T07:49:24.240Z,1014.67
2018-08-04T07:50:33.161Z,1014.63
2018-08-04T07:51:42.096Z,1014.66
2018-08-04T07:52:50.743Z,1014.65
2018-08-04T07:53:59.393Z,1014.69
2018-08-04T07:55:08.317Z,1014.69
2018-08-04T07:56:16.962Z,1014.67
2018-08-04T07:57:25.618Z,1014.64
2018-08-04T07:58:34.260Z,1014.59
2018-08-04T07:59:43.438Z,1014.63
2018-08-04T08:00:52.084Z,1014.64
2018-08-04T08:02:01.001Z,1014.66
2018-08-04T08:03:09.643Z,1014.65
2018-08-04T08:04:18.305Z,1014.66
2018-08-04T08:05:26.958Z,1014.63
2018-08-04T08:06:35.609Z,1014.66
2018-08-04T08:07:44.249Z,1014.61
2018-08-04T08:08:52.902Z,1014.6
2018-08-04T08:10:01.558Z,1014.64
2018-08-04T08:11:10.265Z,1014.62
2018-08-04T08:12:19.185Z,1014.6
2018-08-04T08:13:27.831Z,1014.63
2018-08-04T08:14:36.487Z,1014.66
2018-08-04T08:15:45.137Z,1014.66
2018-08-04T08:16:53.799Z,1014.62
2018-08-04T08:18:02.706Z,1014.57
2018-08-04T08:19:11.359Z,1014.56
2018-08-04T08:20:20.009Z,1014.57
2018-08-04T08:21:28.669Z,1014.57
2018-08-04T08:22:37.572Z,1014.58
2018-08-04T08:23:46.225Z,1014.56
2018-08-04T08:24:54.939Z,1014.56
2018-08-04T08:26:03.536Z,1014.55
2018-08-04T08:27:12.187Z,1014.54
2018-08-04T08:28:20.840Z,1014.57
2018-08-04T08:29:29.489Z,1014.51
2018-08-04T08:30:38.137Z,1014.56
2018-08-04T08:31:46.800Z,1014.54
2018-08-04T08:32:55.716Z,1014.59
2018-08-04T08:34:04.369Z,1014.56
2018-08-04T08:35:13.018Z,1014.58
2018-08-04T08:36:21.673Z,1014.54
2018-08-04T08:37:30.326Z,1014.58
2018-08-04T08:38:38.977Z,1014.6
2018-08-04T08:39:47.893Z,1014.64
2018-08-04T08:40:56.820Z,1014.59
2018-08-04T08:42:05.467Z,1014.6
2018-08-04T08:43:14.121Z,1014.64
2018-08-04T08:44:22.767Z,1014.68
2018-08-04T08:45:31.416Z,1014.68
2018-08-04T08:46:40.672Z,1014.65
2018-08-04T08:47:49.329Z,1014.65
2018-08-04T08:48:57.985Z,1014.65
2018-08-04T08:50:06.630Z,1014.65
2018-08-04T08:51:15.285Z,1014.63
2018-08-04T08:52:23.934Z,1014.63
2018-08-04T08:53:32.850Z,1014.6
2018-08-04T08:54:41.240Z,1014.63
2018-08-04T08:55:49.892Z,1014.6
2018-08-04T08:56:58.546Z,1014.72
2018-08-04T08:58:07.475Z,1014.67
2018-08-04T08:59:16.387Z,1014.72
2018-08-04T09:00:25.309Z,1014.74
2018-08-04T09:01:33.959Z,1014.68
2018-08-04T09:02:42.879Z,1014.75
2018-08-04T09:03:51.792Z,1014.77
2018-08-04T09:05:00.445Z,1014.81
2018-08-04T09:06:09.095Z,1014.77
2018-08-04T09:07:18.034Z,1014.8
2018-08-04T09:08:26.689Z,1014.77
2018-08-04T09:09:35.343Z,1014.81
2018-08-04T09:10:43.993Z,1014.77
2018-08-04T09:11:52.640Z,1014.75
2018-08-04T09:13:01.297Z,1014.73
2018-08-04T09:14:09.949Z,1014.74
2018-08-04T09:15:18.600Z,1014.79
2018-08-04T09:16:27.259Z,1014.81
2018-08-04T09:17:36.175Z,1014.8
2018-08-04T09:18:45.118Z,1014.8
2018-08-04T09:19:53.771Z,1014.78
2018-08-04T09:21:02.418Z,1014.78
2018-08-04T09:22:11.072Z,1014.78
2018-08-04T09:23:19.723Z,1014.8
2018-08-04T09:24:28.374Z,1014.78
2018-08-04T09:25:37.029Z,1014.76
2018-08-04T09:26:45.689Z,1014.79
2018-08-04T09:27:54.337Z,1014.77
2018-08-04T09:29:02.991Z,1014.78
2018-08-04T09:30:11.637Z,1014.78
2018-08-04T09:31:20.569Z,1014.79
2018-08-04T09:32:29.220Z,1014.82
2018-08-04T09:33:37.871Z,1014.82
2018-08-04T09:34:46.786Z,1014.81
2018-08-04T09:35:55.444Z,1014.81
2018-08-04T09:37:04.364Z,1014.78
2018-08-04T09:38:13.280Z,1014.82
2018-08-04T09:39:21.928Z,1014.81
2018-08-04T09:40:30.582Z,1014.81
2018-08-04T09:41:39.499Z,1014.83
2018-08-04T09:42:48.154Z,1014.81
2018-08-04T09:43:56.812Z,1014.82
2018-08-04T09:45:05.461Z,1014.8
2018-08-04T09:46:14.115Z,1014.78
2018-08-04T09:47:22.771Z,1014.72
2018-08-04T09:48:31.427Z,1014.7
2018-08-04T09:49:40.073Z,1014.7
2018-08-04T09:50:48.727Z,1014.72
2018-08-04T09:51:57.379Z,1014.71
2018-08-04T09:53:06.037Z,1014.73
2018-08-04T09:54:14.684Z,1014.75
2018-08-04T09:55:23.340Z,1014.77
2018-08-04T09:56:31.994Z,1014.75
2018-08-04T09:57:40.649Z,1014.77
2018-08-04T09:58:49.302Z,1014.75
2018-08-04T09:59:57.957Z,1014.77
2018-08-04T10:01:06.866Z,1014.71
2018-08-04T10:02:15.518Z,1014.76
2018-08-04T10:03:24.174Z,1014.76
2018-08-04T10:04:32.830Z,1014.74
2018-08-04T10:05:41.482Z,1014.71
2018-08-04T10:06:50.394Z,1014.68
2018-08-04T10:07:59.052Z,1014.68
2018-08-04T10:09:07.702Z,1014.67
2018-08-04T10:10:16.620Z,1014.65
2018-08-04T10:11:25.331Z,1014.66
2018-08-04T10:12:33.925Z,1014.66
2018-08-04T10:13:42.575Z,1014.64
2018-08-04T10:14:51.232Z,1014.67
2018-08-04T10:15:59.888Z,1014.66
2018-08-04T10:17:08.543Z,1014.65
2018-08-04T10:18:17.199Z,1014.66
2018-08-04T10:19:25.856Z,1014.64
2018-08-04T10:20:34.805Z,1014.64
2018-08-04T10:21:43.452Z,1014.63
2018-08-04T10:22:52.108Z,1014.65
2018-08-04T10:24:00.755Z,1014.6
2018-08-04T10:25:09.417Z,1014.62
2018-08-04T10:26:18.066Z,1014.62
2018-08-04T10:27:26.726Z,1014.59
2018-08-04T10:28:35.633Z,1014.61
2018-08-04T10:29:44.573Z,1014.55
2018-08-04T10:30:53.482Z,1014.6
2018-08-04T10:32:02.296Z,1014.61
2018-08-04T10:33:10.790Z,1014.61
2018-08-04T10:34:19.452Z,1014.6
2018-08-04T10:35:28.377Z,1014.58
2018-08-04T10:36:37.024Z,1014.59
2018-08-04T10:37:45.675Z,1014.55
2018-08-04T10:38:54.328Z,1014.54
2018-08-04T10:40:02.992Z,1014.56
2018-08-04T10:41:11.643Z,1014.54
2018-08-04T10:42:20.302Z,1014.63
2018-08-04T10:43:28.948Z,1014.54
2018-08-04T10:44:37.610Z,1014.54
2018-08-04T10:45:46.265Z,1014.47
2018-08-04T10:46:54.920Z,1014.49
2018-08-04T10:48:03.565Z,1014.54
2018-08-04T10:49:12.224Z,1014.51
2018-08-04T10:50:20.873Z,1014.53
2018-08-04T10:51:29.534Z,1014.48
2018-08-04T10:52:38.173Z,1014.45
2018-08-04T10:53:46.830Z,1014.44
2018-08-04T10:54:55.762Z,1014.45
2018-08-04T10:56:04.678Z,1014.41
2018-08-04T10:57:13.335Z,1014.39
2018-08-04T10:58:21.978Z,1014.41
2018-08-04T10:59:30.639Z,1014.43
2018-08-04T11:00:39.550Z,1014.43
2018-08-04T11:01:48.219Z,1014.43
2018-08-04T11:02:56.863Z,1014.38
2018-08-04T11:04:05.523Z,1014.4
2018-08-04T11:05:14.174Z,1014.45
2018-08-04T11:06:22.835Z,1014.41
2018-08-04T11:07:31.483Z,1014.42
2018-08-04T11:08:40.684Z,1014.39
2018-08-04T11:09:49.335Z,1014.37
2018-08-04T11:10:58.261Z,1014.37
2018-08-04T11:12:06.918Z,1014.39
2018-08-04T11:13:15.567Z,1014.39
2018-08-04T11:14:24.273Z,1014.33
2018-08-04T11:15:32.875Z,1014.31
2018-08-04T11:16:41.804Z,1014.31
2018-08-04T11:17:50.455Z,1014.31
2018-08-04T11:18:59.667Z,1014.29
2018-08-04T11:20:08.315Z,1014.33
2018-08-04T11:21:16.974Z,1014.32
2018-08-04T11:22:25.630Z,1014.27
2018-08-04T11:23:34.286Z,1014.31
2018-08-04T11:24:42.935Z,1014.28
2018-08-04T11:25:51.594Z,1014.28
2018-08-04T11:27:00.246Z,1014.29
2018-08-04T11:28:08.904Z,1014.3
2018-08-04T11:29:17.834Z,1014.38
2018-08-04T11:30:26.491Z,1014.34
2018-08-04T11:31:35.415Z,1014.32
2018-08-04T11:32:44.344Z,1014.33
2018-08-04T11:33:53.001Z,1014.31
2018-08-04T11:35:01.653Z,1014.35
2018-08-04T11:36:10.310Z,1014.36
2018-08-04T11:37:19.514Z,1014.32
2018-08-04T11:38:28.159Z,1014.29
2018-08-04T11:39:36.808Z,1014.31
2018-08-04T11:40:45.464Z,1014.29
2018-08-04T11:41:54.119Z,1014.24
2018-08-04T11:43:02.780Z,1014.28
2018-08-04T11:44:11.431Z,1014.27
2018-08-04T11:45:20.090Z,1014.27
2018-08-04T11:46:28.742Z,1014.24
2018-08-04T11:47:37.400Z,1014.24
2018-08-04T11:48:46.052Z,1014.33
2018-08-04T11:49:54.973Z,1014.32
2018-08-04T11:51:03.887Z,1014.31
2018-08-04T11:52:12.544Z,1014.29
2018-08-04T11:53:21.201Z,1014.25
2018-08-04T11:54:29.860Z,1014.26
2018-08-04T11:55:38.788Z,1014.26
2018-08-04T11:56:47.440Z,1014.25
2018-08-04T11:57:56.100Z,1014.28
2018-08-04T11:59:04.755Z,1014.29
2018-08-04T12:00:13.409Z,1014.26
2018-08-04T12:01:22.334Z,1014.26
2018-08-04T12:02:30.993Z,1014.22
2018-08-04T12:03:39.646Z,1014.23
2018-08-04T12:04:48.583Z,1014.22
2018-08-04T12:05:57.231Z,1014.18
2018-08-04T12:07:05.892Z,1014.18
2018-08-04T12:08:14.821Z,1014.19
2018-08-04T12:09:23.530Z,1014.23
2018-08-04T12:10:32.181Z,1014.17
2018-08-04T12:11:40.832Z,1014.19
2018-08-04T12:12:49.756Z,1014.19
2018-08-04T12:13:58.411Z,1014.18
2018-08-04T12:15:07.071Z,1014.14
2018-08-04T12:16:15.721Z,1014.16
2018-08-04T12:17:24.376Z,1014.2
2018-08-04T12:18:33.034Z,1014.15
2018-08-04T12:19:41.697Z,1014.14
2018-08-04T12:20:50.337Z,1014.05
2018-08-04T12:21:58.994Z,1014.09
2018-08-04T12:23:07.648Z,1014.09
2018-08-04T12:24:16.311Z,1014.04
2018-08-04T12:25:25.008Z,1014.09
2018-08-04T12:26:33.622Z,1014.03
2018-08-04T12:27:42.535Z,1014.04
2018-08-04T12:28:51.188Z,1014.04
2018-08-04T12:29:59.852Z,1014.01
2018-08-04T12:31:08.506Z,1014.05
2018-08-04T12:32:17.463Z,1014.02
2018-08-04T12:33:26.111Z,1014.02
2018-08-04T12:34:35.045Z,1014.01
2018-08-04T12:35:43.701Z,1014.03
2018-08-04T12:36:52.362Z,1013.98
2018-08-04T12:38:01.010Z,1013.97
2018-08-04T12:39:09.678Z,1013.98
2018-08-04T12:40:18.591Z,1013.96
2018-08-04T12:41:27.249Z,1013.96
2018-08-04T12:42:35.896Z,1013.89
2018-08-04T12:43:44.561Z,1013.96
2018-08-04T12:44:53.503Z,1013.93
2018-08-04T12:46:02.424Z,1013.93
2018-08-04T12:47:11.084Z,1013.91
2018-08-04T12:48:19.995Z,1013.92
2018-08-04T12:49:28.655Z,1013.92
2018-08-04T12:50:37.304Z,1013.85
2018-08-04T12:51:45.970Z,1013.88
2018-08-04T12:52:54.633Z,1013.9
2018-08-04T12:54:03.557Z,1013.85
2018-08-04T12:55:12.208Z,1013.88
2018-08-04T12:56:20.872Z,1013.82
2018-08-04T12:57:29.542Z,1013.85
2018-08-04T12:58:38.440Z,1013.9
2018-08-04T12:59:47.095Z,1013.84
2018-08-04T13:00:55.762Z,1013.84
2018-08-04T13:02:04.677Z,1013.87
2018-08-04T13:03:13.592Z,1013.86
2018-08-04T13:04:22.246Z,1013.82
2018-08-04T13:05:30.900Z,1013.93
2018-08-04T13:06:39.564Z,1013.87
2018-08-04T13:07:48.220Z,1013.91
2018-08-04T13:08:56.926Z,1013.89
2018-08-04T13:10:05.525Z,1013.86
2018-08-04T13:11:14.191Z,1013.83
2018-08-04T13:12:22.844Z,1013.84
2018-08-04T13:13:31.507Z,1013.71
2018-08-04T13:14:40.156Z,1013.79
2018-08-04T13:15:49.085Z,1013.82
2018-08-04T13:16:57.767Z,1013.78
2018-08-04T13:18:06.683Z,1013.75
2018-08-04T13:19:15.347Z,1013.79
2018-08-04T13:20:24.002Z,1013.78
2018-08-04T13:21:32.651Z,1013.8
2018-08-04T13:22:41.306Z,1013.8
2018-08-04T13:23:49.964Z,1013.77
2018-08-04T13:24:58.627Z,1013.78
2018-08-04T13:26:07.281Z,1013.74
2018-08-04T13:27:15.947Z,1013.74
2018-08-04T13:28:24.592Z,1013.7
2018-08-04T13:29:33.283Z,1013.7
2018-08-04T13:30:41.909Z,1013.69
2018-08-04T13:31:50.569Z,1013.72
2018-08-04T13:32:59.213Z,1013.68
2018-08-04T13:34:07.879Z,1013.64
2018-08-04T13:35:16.533Z,1013.6
2018-08-04T13:36:25.189Z,1013.59
2018-08-04T13:37:33.841Z,1013.58
2018-08-04T13:38:42.797Z,1013.56
2018-08-04T13:39:51.445Z,1013.55
2018-08-04T13:41:00.103Z,1013.59
2018-08-04T13:42:08.762Z,1013.62
2018-08-04T13:43:17.415Z,1013.56
2018-08-04T13:44:26.073Z,1013.53
2018-08-04T13:45:34.722Z,1013.51
2018-08-04T13:46:43.389Z,1013.53
2018-08-04T13:47:52.042Z,1013.56
2018-08-04T13:49:00.701Z,1013.49
2018-08-04T13:50:09.632Z,1013.55
2018-08-04T13:51:18.631Z,1013.56
2018-08-04T13:52:27.277Z,1013.51
2018-08-04T13:53:36.199Z,1013.52